This is the latest recevied weather packets stored in our database for station/object ON4CCM-13. If no packets are shown the sender has not sent any weather packets the latest 10 day(s).
| Time | Temp. | Humidity | Pressure | Rain* | Wind** | Luminosity | Snow |
|---|---|---|---|---|---|---|---|
| 1778235664 | 17.78° C | 47% | 1020.6 hPa | 0 mm | - | - | - |
| 1778235059 | 17.22° C | 48% | 1020.6 hPa | 0 mm | - | - | - |
| 1778233852 | 17.22° C | 50% | 1020.6 hPa | 0 mm | - | - | - |
| 1778233248 | 16.67° C | 54% | 1020.7 hPa | 0 mm | - | - | - |
| 1778226685 | 13.33° C | 73% | 1020.4 hPa | 0 mm | - | - | - |
| 1778216463 | 10° C | 87% | 1019.5 hPa | 0 mm | - | - | - |
| 1778215257 | 9.44° C | 88% | 1019.4 hPa | 0 mm | - | - | - |
| 1778214048 | 9.44° C | 88% | 1019.3 hPa | 0 mm | - | - | - |
| 1778208675 | 9.44° C | 84% | 1019.2 hPa | 0 mm | - | - | - |
| 1778203238 | 10° C | 81% | 1019.3 hPa | 0 mm | - | - | - |
| 1778199073 | 10.56° C | 79% | 1019.4 hPa | 0 mm | - | - | - |
| 1778194263 | 10.56° C | 76% | 1019.6 hPa | 0 mm | - | - | - |
| 1778192431 | 10.56° C | 74% | 1019.6 hPa | 0 mm | - | - | - |
| 1778191224 | 11.11° C | 72% | 1019.5 hPa | 0 mm | - | - | - |
| 1778185267 | 11.67° C | 64% | 1019.2 hPa | 0 mm | - | - | - |
| 1778183455 | 12.22° C | 61% | 1018.9 hPa | 0 mm | - | - | - |
| 1778181644 | 12.78° C | 56% | 1018.7 hPa | 0 mm | - | - | - |
| 1778180417 | 13.33° C | 54% | 1018.8 hPa | 0 mm | - | - | - |
| 1778179290 | 13.89° C | 51% | 1018.7 hPa | 0 mm | - | - | - |
| 1778178666 | 13.89° C | 50% | 1018.6 hPa | 0 mm | - | - | - |
| 1778178062 | 14.44° C | 50% | 1018.7 hPa | 0 mm | - | - | - |
| 1778164861 | 16.67° C | 26% | 1018.6 hPa | 0 mm | - | - | - |
| 1778163634 | 16.67° C | 28% | 1018.6 hPa | 0 mm | - | - | - |
| 1778160071 | 16.11° C | 34% | 1018.8 hPa | 0 mm | - | - | - |
| 1778159467 | 15.56° C | 31% | 1018.8 hPa | 0 mm | - | - | - |
* Rain latest hour (hover to see other rain measurements)
** Current wind speed in m/s (hover to see current wind gust speed)